Tatum, Mississippi
Current Conditions -  °F | °C
As of 11:53 AM on Saturday 25 Oct 2014 (Local Time) from KMCB Reporting Station
Clear Clear  
Wind Chill: 75°   Ceiling: Unl
Heat Index: 75°   Visibility: 10mi
Dew Point: 52°   Wind: 8mph
Humidity: 44%   Direction: 10°N
Pressure: 30.16"   Gusts: NA
Location:  31.1819°N, 90.9008°W
Report Text: KMCB 251653Z AUTO 01007KT 340V060 10SM CLR 24/11 A3016 RMK AO2 SLP211 T02390111
Loading
Personal Weather Stations






























Interactive Weather Map New forecast layout! Learn more

10-Day Weather Forecast

Advertisements
Track Severe Weather on mobile